createdAt,value
2018-11-11T00:00:52.245Z,0.00
2018-11-11T00:01:52.223Z,0.00
2018-11-11T00:02:52.205Z,0.00
2018-11-11T00:03:52.186Z,0.00
2018-11-11T00:04:52.160Z,0.00
2018-11-11T00:05:52.141Z,0.00
2018-11-11T00:06:52.125Z,0.00
2018-11-11T00:07:52.108Z,0.00
2018-11-11T00:08:52.077Z,0.00
2018-11-11T00:09:52.046Z,0.00
2018-11-11T00:10:52.028Z,0.00
2018-11-11T00:11:52.012Z,0.00
2018-11-11T00:12:52.002Z,0.00
2018-11-11T00:13:51.974Z,0.00
2018-11-11T00:14:51.939Z,0.00
2018-11-11T00:15:51.930Z,0.00
2018-11-11T00:16:51.911Z,0.00
2018-11-11T00:17:51.893Z,0.00
2018-11-11T00:18:51.870Z,0.00
2018-11-11T00:19:51.830Z,0.00
2018-11-11T00:20:51.825Z,0.00
2018-11-11T00:21:51.948Z,0.00
2018-11-11T00:22:51.784Z,0.00
2018-11-11T00:23:51.769Z,0.00
2018-11-11T00:24:51.745Z,0.00
2018-11-11T00:25:51.723Z,0.00
2018-11-11T00:26:51.698Z,0.00
2018-11-11T00:27:51.665Z,0.00
2018-11-11T00:28:51.664Z,0.00
2018-11-11T00:29:51.645Z,0.00
2018-11-11T00:30:51.619Z,0.00
2018-11-11T00:31:51.605Z,0.00
2018-11-11T00:32:51.578Z,0.00
2018-11-11T00:33:51.550Z,0.00
2018-11-11T00:34:51.537Z,0.00
2018-11-11T00:35:51.520Z,0.00
2018-11-11T00:36:51.494Z,0.00
2018-11-11T00:37:51.477Z,0.00
2018-11-11T00:38:51.442Z,0.00
2018-11-11T00:39:51.428Z,0.00
2018-11-11T00:40:51.407Z,0.00
2018-11-11T00:41:51.386Z,0.00
2018-11-11T00:42:51.360Z,0.00
2018-11-11T00:43:51.328Z,0.00
2018-11-11T00:44:51.308Z,0.00
2018-11-11T00:45:51.310Z,0.00
2018-11-11T00:46:51.281Z,0.00
2018-11-11T00:47:51.261Z,0.00
2018-11-11T00:48:51.238Z,0.00
2018-11-11T00:49:51.215Z,0.00
2018-11-11T00:50:51.196Z,0.00
2018-11-11T00:51:51.179Z,0.00
2018-11-11T00:52:51.155Z,0.00
2018-11-11T00:53:51.135Z,0.00
2018-11-11T00:54:51.099Z,0.00
2018-11-11T00:55:51.091Z,0.00
2018-11-11T00:56:51.067Z,0.00
2018-11-11T00:57:51.054Z,0.00
2018-11-11T00:58:51.021Z,0.00
2018-11-11T00:59:51.003Z,0.00
2018-11-11T01:00:50.988Z,0.00
2018-11-11T01:01:50.963Z,0.00
2018-11-11T01:02:50.932Z,0.00
2018-11-11T01:03:50.908Z,0.00
2018-11-11T01:04:50.896Z,0.00
2018-11-11T01:05:50.881Z,0.00
2018-11-11T01:06:50.862Z,0.00
2018-11-11T01:07:50.840Z,0.00
2018-11-11T01:08:50.823Z,0.00
2018-11-11T01:09:50.800Z,0.00
2018-11-11T01:11:23.996Z,0.00
2018-11-11T01:11:50.756Z,0.00
2018-11-11T01:12:50.741Z,0.00
2018-11-11T01:13:50.720Z,0.00
2018-11-11T01:14:50.695Z,0.00
2018-11-11T01:15:50.672Z,0.00
2018-11-11T01:16:50.654Z,0.00
2018-11-11T01:17:50.618Z,0.00
2018-11-11T01:18:50.606Z,0.00
2018-11-11T01:19:50.588Z,0.00
2018-11-11T01:20:50.569Z,0.00
2018-11-11T01:21:50.551Z,0.00
2018-11-11T01:22:50.512Z,0.00
2018-11-11T01:23:50.491Z,0.00
2018-11-11T01:24:50.489Z,0.00
2018-11-11T01:25:50.466Z,0.00
2018-11-11T01:26:50.446Z,0.00
2018-11-11T01:27:50.425Z,0.00
2018-11-11T01:28:50.405Z,0.00
2018-11-11T01:29:50.380Z,0.00
2018-11-11T01:30:50.358Z,0.00
2018-11-11T01:31:50.339Z,0.00
2018-11-11T01:32:50.319Z,0.00
2018-11-11T01:33:50.296Z,0.00
2018-11-11T01:34:50.273Z,0.00
2018-11-11T01:35:50.256Z,0.00
2018-11-11T01:36:50.231Z,0.00
2018-11-11T01:37:50.211Z,0.00
2018-11-11T01:38:50.191Z,0.00
2018-11-11T01:39:50.170Z,0.00
2018-11-11T01:40:50.147Z,0.00
2018-11-11T01:41:50.132Z,0.00
2018-11-11T01:42:50.095Z,0.00
2018-11-11T01:43:50.091Z,0.00
2018-11-11T01:44:50.071Z,0.00
2018-11-11T01:45:50.042Z,0.00
2018-11-11T01:46:50.029Z,0.00
2018-11-11T01:47:50.006Z,0.00
2018-11-11T01:48:49.990Z,0.00
2018-11-11T01:49:49.963Z,0.00
2018-11-11T01:50:49.942Z,0.00
2018-11-11T01:51:49.920Z,0.00
2018-11-11T01:52:49.907Z,0.00
2018-11-11T01:53:49.882Z,0.00
2018-11-11T01:54:49.858Z,0.00
2018-11-11T01:55:49.843Z,0.00
2018-11-11T01:56:49.817Z,0.00
2018-11-11T01:57:49.796Z,0.00
2018-11-11T01:58:49.776Z,0.00
2018-11-11T01:59:49.749Z,0.00
2018-11-11T02:00:49.722Z,0.00
2018-11-11T02:01:49.711Z,0.00
2018-11-11T02:02:49.692Z,0.00
2018-11-11T02:03:49.667Z,0.00
2018-11-11T02:04:49.650Z,0.00
2018-11-11T02:05:49.615Z,0.00
2018-11-11T02:06:49.604Z,0.00
2018-11-11T02:07:49.624Z,0.00
2018-11-11T02:08:49.569Z,0.00
2018-11-11T02:09:49.587Z,0.00
2018-11-11T02:10:49.518Z,0.00
2018-11-11T02:11:49.505Z,0.00
2018-11-11T02:12:49.484Z,0.00
2018-11-11T02:13:49.472Z,0.00
2018-11-11T02:14:49.436Z,0.00
2018-11-11T02:15:49.418Z,0.00
2018-11-11T02:16:49.396Z,0.00
2018-11-11T02:17:49.384Z,0.00
2018-11-11T02:18:49.364Z,0.00
2018-11-11T02:19:49.343Z,0.00
2018-11-11T02:20:49.326Z,0.00
2018-11-11T02:21:49.289Z,0.00
2018-11-11T02:22:49.279Z,0.00
2018-11-11T02:23:49.250Z,0.00
2018-11-11T02:24:49.233Z,0.00
2018-11-11T02:25:49.196Z,0.00
2018-11-11T02:26:49.190Z,0.00
2018-11-11T02:27:49.167Z,0.00
2018-11-11T02:28:49.152Z,0.00
2018-11-11T02:29:49.132Z,0.00
2018-11-11T02:30:49.109Z,0.00
2018-11-11T02:31:49.088Z,0.00
2018-11-11T02:32:49.069Z,0.00
2018-11-11T02:33:49.043Z,0.00
2018-11-11T02:34:49.032Z,0.00
2018-11-11T02:35:49.001Z,0.00
2018-11-11T02:36:48.987Z,0.00
2018-11-11T02:37:48.971Z,0.00
2018-11-11T02:38:48.939Z,0.00
2018-11-11T02:39:48.922Z,0.00
2018-11-11T02:40:48.886Z,0.00
2018-11-11T02:41:48.883Z,0.00
2018-11-11T02:42:48.857Z,0.00
2018-11-11T02:43:48.840Z,0.00
2018-11-11T02:44:48.818Z,0.00
2018-11-11T02:45:48.801Z,0.00
2018-11-11T02:47:21.968Z,0.00
2018-11-11T02:47:48.761Z,0.00
2018-11-11T02:48:48.725Z,0.00
2018-11-11T02:49:48.712Z,0.00
2018-11-11T02:50:48.694Z,0.00
2018-11-11T02:51:48.677Z,0.00
2018-11-11T02:52:48.651Z,0.00
2018-11-11T02:53:48.619Z,0.00
2018-11-11T02:54:48.614Z,0.00
2018-11-11T02:55:48.589Z,0.00
2018-11-11T02:56:48.573Z,0.00
2018-11-11T02:57:48.554Z,0.00
2018-11-11T02:58:48.527Z,0.00
2018-11-11T02:59:48.493Z,0.00
2018-11-11T03:00:48.472Z,0.00
2018-11-11T03:01:48.450Z,0.00
2018-11-11T03:02:48.446Z,0.00
2018-11-11T03:03:48.424Z,0.00
2018-11-11T03:04:48.392Z,0.00
2018-11-11T03:05:48.382Z,0.00
2018-11-11T03:06:48.366Z,0.00
2018-11-11T03:07:48.342Z,0.00
2018-11-11T03:08:48.308Z,0.00
2018-11-11T03:09:48.290Z,0.00
2018-11-11T03:10:48.268Z,0.00
2018-11-11T03:11:48.259Z,0.00
2018-11-11T03:12:48.244Z,0.00
2018-11-11T03:13:48.225Z,0.00
2018-11-11T03:14:48.197Z,0.00
2018-11-11T03:15:48.186Z,0.00
2018-11-11T03:16:48.156Z,0.00
2018-11-11T03:17:48.142Z,0.00
2018-11-11T03:18:48.119Z,0.00
2018-11-11T03:19:48.101Z,0.00
2018-11-11T03:20:48.077Z,0.00
2018-11-11T03:21:48.058Z,0.00
2018-11-11T03:22:48.037Z,0.00
2018-11-11T03:23:48.000Z,0.00
2018-11-11T03:24:47.989Z,0.00
2018-11-11T03:25:47.972Z,0.00
2018-11-11T03:26:47.952Z,0.00
2018-11-11T03:27:48.003Z,0.00
2018-11-11T03:28:47.910Z,0.00
2018-11-11T03:29:47.881Z,0.00
2018-11-11T03:30:47.873Z,0.00
2018-11-11T03:31:47.856Z,0.00
2018-11-11T03:32:47.847Z,0.00
2018-11-11T03:33:47.811Z,0.00
2018-11-11T03:34:47.787Z,0.00
2018-11-11T03:35:47.773Z,0.00
2018-11-11T03:36:47.745Z,0.00
2018-11-11T03:37:47.738Z,0.00
2018-11-11T03:38:47.690Z,0.00
2018-11-11T03:39:47.683Z,0.00
2018-11-11T03:40:47.666Z,0.00
2018-11-11T03:41:47.642Z,0.00
2018-11-11T03:42:47.622Z,0.00
2018-11-11T03:43:47.588Z,0.00
2018-11-11T03:44:47.579Z,0.00
2018-11-11T03:45:47.555Z,0.00
2018-11-11T03:46:47.540Z,0.00
2018-11-11T03:47:47.516Z,0.00
2018-11-11T03:48:47.489Z,0.00
2018-11-11T03:49:47.479Z,0.00
2018-11-11T03:50:47.437Z,0.00
2018-11-11T03:51:47.435Z,0.00
2018-11-11T03:52:47.418Z,0.00
2018-11-11T03:53:47.389Z,0.00
2018-11-11T03:54:47.360Z,0.00
2018-11-11T03:55:47.347Z,0.00
2018-11-11T03:56:47.330Z,0.00
2018-11-11T03:57:47.302Z,0.00
2018-11-11T03:58:47.371Z,0.00
2018-11-11T03:59:47.267Z,0.00
2018-11-11T04:00:47.253Z,0.00
2018-11-11T04:01:47.224Z,0.00
2018-11-11T04:02:47.203Z,0.00
2018-11-11T04:03:47.167Z,0.00
2018-11-11T04:04:47.162Z,0.00
2018-11-11T04:05:47.128Z,0.00
2018-11-11T04:06:47.105Z,0.00
2018-11-11T04:07:47.101Z,0.00
2018-11-11T04:08:47.067Z,0.00
2018-11-11T04:09:47.057Z,0.00
2018-11-11T04:10:47.039Z,0.00
2018-11-11T04:11:47.004Z,0.00
2018-11-11T04:12:46.978Z,0.00
2018-11-11T04:13:46.976Z,0.00
2018-11-11T04:14:46.957Z,0.00
2018-11-11T04:15:46.938Z,0.00
2018-11-11T04:16:46.914Z,0.00
2018-11-11T04:17:46.876Z,0.00
2018-11-11T04:18:46.877Z,0.00
2018-11-11T04:19:46.850Z,0.00
2018-11-11T04:20:46.826Z,0.00
2018-11-11T04:21:46.806Z,0.00
2018-11-11T04:22:46.792Z,0.00
2018-11-11T04:23:46.766Z,0.00
2018-11-11T04:24:46.745Z,0.00
2018-11-11T04:25:46.725Z,0.00
2018-11-11T04:26:46.704Z,0.00
2018-11-11T04:27:46.680Z,0.00
2018-11-11T04:28:46.665Z,0.00
2018-11-11T04:29:46.640Z,0.00
2018-11-11T04:30:46.624Z,0.00
2018-11-11T04:31:46.589Z,0.00
2018-11-11T04:32:46.579Z,0.00
2018-11-11T04:33:46.557Z,0.00
2018-11-11T04:34:46.537Z,0.00
2018-11-11T04:35:46.525Z,0.00
2018-11-11T04:36:46.497Z,0.00
2018-11-11T04:37:46.481Z,0.00
2018-11-11T04:38:46.463Z,0.00
2018-11-11T04:39:46.434Z,0.00
2018-11-11T04:40:46.399Z,0.00
2018-11-11T04:41:46.393Z,0.00
2018-11-11T04:42:46.371Z,0.00
2018-11-11T04:43:46.354Z,0.00
2018-11-11T04:44:46.331Z,0.00
2018-11-11T04:45:46.312Z,0.00
2018-11-11T04:46:46.291Z,0.00
2018-11-11T04:47:46.271Z,0.00
2018-11-11T04:48:46.250Z,0.00
2018-11-11T04:49:46.228Z,0.00
2018-11-11T04:50:46.204Z,0.00
2018-11-11T04:51:46.187Z,0.00
2018-11-11T04:52:46.163Z,0.00
2018-11-11T04:53:46.149Z,0.00
2018-11-11T04:54:46.125Z,0.00
2018-11-11T04:55:46.088Z,0.00
2018-11-11T04:56:46.080Z,0.00
2018-11-11T04:57:46.046Z,0.00
2018-11-11T04:58:46.028Z,0.00
2018-11-11T04:59:46.022Z,0.00
2018-11-11T05:00:45.994Z,0.00
2018-11-11T05:01:45.974Z,0.00
2018-11-11T05:02:45.952Z,0.00
2018-11-11T05:03:45.937Z,0.00
2018-11-11T05:04:46.105Z,0.00
2018-11-11T05:05:45.898Z,0.00
2018-11-11T05:06:45.877Z,0.00
2018-11-11T05:07:45.850Z,0.00
2018-11-11T05:08:45.819Z,0.00
2018-11-11T05:09:45.808Z,0.00
2018-11-11T05:10:45.789Z,0.00
2018-11-11T05:11:45.760Z,0.00
2018-11-11T05:12:45.746Z,0.00
2018-11-11T05:13:45.725Z,0.00
2018-11-11T05:14:45.694Z,0.00
2018-11-11T05:15:45.673Z,0.00
2018-11-11T05:16:45.649Z,0.00
2018-11-11T05:17:45.648Z,0.00
2018-11-11T05:18:45.603Z,0.00
2018-11-11T05:19:45.589Z,0.00
2018-11-11T05:20:45.579Z,0.00
2018-11-11T05:21:45.587Z,0.00
2018-11-11T05:22:45.535Z,0.00
2018-11-11T05:23:45.516Z,0.00
2018-11-11T05:24:45.498Z,0.00
2018-11-11T05:25:45.474Z,0.00
2018-11-11T05:26:45.457Z,0.00
2018-11-11T05:27:45.433Z,0.00
2018-11-11T05:28:45.414Z,0.00
2018-11-11T05:29:45.398Z,0.00
2018-11-11T05:30:45.383Z,0.00
2018-11-11T05:31:45.345Z,0.00
2018-11-11T05:32:45.327Z,0.00
2018-11-11T05:33:45.291Z,0.00
2018-11-11T05:34:45.287Z,0.00
2018-11-11T05:35:45.254Z,0.00
2018-11-11T05:36:45.233Z,0.00
2018-11-11T05:37:45.208Z,0.00
2018-11-11T05:38:45.221Z,0.00
2018-11-11T05:39:45.183Z,0.00
2018-11-11T05:40:45.158Z,0.00
2018-11-11T05:41:45.148Z,0.00
2018-11-11T05:42:45.121Z,0.00
2018-11-11T05:43:45.098Z,0.00
2018-11-11T05:44:45.064Z,0.00
2018-11-11T05:45:45.058Z,0.00
2018-11-11T05:46:45.033Z,0.00
2018-11-11T05:47:45.014Z,0.00
2018-11-11T05:48:45.000Z,0.00
2018-11-11T05:49:44.973Z,0.00
2018-11-11T05:50:44.953Z,0.00
2018-11-11T05:51:44.930Z,0.00
2018-11-11T05:52:44.914Z,0.00
2018-11-11T05:53:44.887Z,0.00
2018-11-11T05:54:44.871Z,0.00
2018-11-11T05:55:44.842Z,0.00
2018-11-11T05:56:44.812Z,0.00
2018-11-11T05:57:44.835Z,0.00
2018-11-11T05:58:44.786Z,0.00
2018-11-11T05:59:44.745Z,0.00
2018-11-11T06:00:44.739Z,0.00
2018-11-11T06:01:44.700Z,0.00
2018-11-11T06:02:44.690Z,0.00
2018-11-11T06:03:44.664Z,0.00
2018-11-11T06:04:44.654Z,0.00
2018-11-11T06:05:44.638Z,0.00
2018-11-11T06:06:44.612Z,0.00
2018-11-11T06:07:44.594Z,0.00
2018-11-11T06:08:44.572Z,0.00
2018-11-11T06:09:44.554Z,0.00
2018-11-11T06:10:44.538Z,0.00
2018-11-11T06:11:44.491Z,0.00
2018-11-11T06:12:44.478Z,0.00
2018-11-11T06:13:44.454Z,0.00
2018-11-11T06:14:44.451Z,0.00
2018-11-11T06:15:44.426Z,0.00
2018-11-11T06:16:44.405Z,0.00
2018-11-11T06:17:44.383Z,0.00
2018-11-11T06:18:44.369Z,0.00
2018-11-11T06:19:44.328Z,0.00
2018-11-11T06:20:44.302Z,0.00
2018-11-11T06:21:44.300Z,0.00
2018-11-11T06:22:44.258Z,0.00
2018-11-11T06:23:44.256Z,0.00
2018-11-11T06:24:44.234Z,0.00
2018-11-11T06:25:44.215Z,0.00
2018-11-11T06:26:44.202Z,0.00
2018-11-11T06:27:44.179Z,0.00
2018-11-11T06:28:44.150Z,0.00
2018-11-11T06:29:44.131Z,0.00
2018-11-11T06:30:44.099Z,0.00
2018-11-11T06:31:44.096Z,0.00
2018-11-11T06:32:44.072Z,0.00
2018-11-11T06:33:44.047Z,0.00
2018-11-11T06:34:44.029Z,0.00
2018-11-11T06:35:44.000Z,0.00
2018-11-11T06:36:43.981Z,0.00
2018-11-11T06:37:43.961Z,0.00
2018-11-11T06:38:43.925Z,0.00
2018-11-11T06:39:43.903Z,0.00
2018-11-11T06:40:43.883Z,0.00
2018-11-11T06:41:43.861Z,0.00
2018-11-11T06:42:43.851Z,0.00
2018-11-11T06:43:43.832Z,0.00
2018-11-11T06:44:43.812Z,0.00
2018-11-11T06:45:43.788Z,0.00
2018-11-11T06:46:43.772Z,0.00
2018-11-11T06:47:43.741Z,0.00
2018-11-11T06:48:43.738Z,0.00
2018-11-11T06:49:43.705Z,0.00
2018-11-11T06:50:43.692Z,0.00
2018-11-11T06:51:43.674Z,0.00
2018-11-11T06:52:43.644Z,0.00
2018-11-11T06:53:43.625Z,0.00
2018-11-11T06:54:43.603Z,0.00
2018-11-11T06:55:43.582Z,0.00
2018-11-11T06:56:43.560Z,0.00
2018-11-11T06:57:43.546Z,0.00
2018-11-11T06:58:43.506Z,0.00
2018-11-11T06:59:43.496Z,0.00
2018-11-11T07:00:43.478Z,0.00
2018-11-11T07:01:43.463Z,0.00
2018-11-11T07:02:43.433Z,0.00
2018-11-11T07:03:43.411Z,0.00
2018-11-11T07:04:43.398Z,0.00
2018-11-11T07:05:43.378Z,0.00
2018-11-11T07:06:43.347Z,0.00
2018-11-11T07:07:43.400Z,0.00
2018-11-11T07:08:43.306Z,0.00
2018-11-11T07:09:43.288Z,0.00
2018-11-11T07:10:43.272Z,0.00
2018-11-11T07:11:43.245Z,0.00
2018-11-11T07:12:43.224Z,0.00
2018-11-11T07:13:43.213Z,0.00
2018-11-11T07:14:43.184Z,0.00
2018-11-11T07:15:43.159Z,0.00
2018-11-11T07:16:43.145Z,0.00
2018-11-11T07:17:43.103Z,0.00
2018-11-11T07:18:43.096Z,0.00
2018-11-11T07:19:43.080Z,0.00
2018-11-11T07:20:43.055Z,0.00
2018-11-11T07:21:43.044Z,0.00
2018-11-11T07:22:43.017Z,0.00
2018-11-11T07:23:43.060Z,0.00
2018-11-11T07:24:42.960Z,0.00
2018-11-11T07:25:42.937Z,0.00
2018-11-11T07:26:42.919Z,0.00
2018-11-11T07:27:42.908Z,0.00
2018-11-11T07:28:42.891Z,0.00
2018-11-11T07:29:42.871Z,0.00
2018-11-11T07:30:42.839Z,0.00
2018-11-11T07:31:42.833Z,0.00
2018-11-11T07:32:42.800Z,0.00
2018-11-11T07:33:42.772Z,0.00
2018-11-11T07:34:42.761Z,0.00
2018-11-11T07:35:42.739Z,0.00
2018-11-11T07:36:42.725Z,0.00
2018-11-11T07:37:42.700Z,0.00
2018-11-11T07:38:42.678Z,0.00
2018-11-11T07:39:42.653Z,0.00
2018-11-11T07:40:42.637Z,0.00
2018-11-11T07:41:42.615Z,0.00
2018-11-11T07:42:42.593Z,0.00
2018-11-11T07:43:42.559Z,0.00
2018-11-11T07:44:42.534Z,0.00
2018-11-11T07:45:42.515Z,0.00
2018-11-11T07:46:42.506Z,0.00
2018-11-11T07:47:42.534Z,0.00
2018-11-11T07:48:42.468Z,0.00
2018-11-11T07:49:42.445Z,0.00
2018-11-11T07:50:42.428Z,0.00
2018-11-11T07:51:42.389Z,4.00
2018-11-11T07:52:42.380Z,0.00
2018-11-11T07:53:42.363Z,4.00
2018-11-11T07:54:42.404Z,0.00
2018-11-11T07:55:42.318Z,4.00
2018-11-11T07:56:42.294Z,8.00
2018-11-11T07:57:42.275Z,8.00
2018-11-11T07:58:42.251Z,8.00
2018-11-11T07:59:42.236Z,8.00
2018-11-11T08:00:42.213Z,12.00
2018-11-11T08:01:42.276Z,16.00
2018-11-11T08:02:42.159Z,20.00
2018-11-11T08:03:42.147Z,24.00
2018-11-11T08:04:42.126Z,32.00
2018-11-11T08:05:42.101Z,40.00
2018-11-11T08:06:42.085Z,48.00
2018-11-11T08:07:42.049Z,60.00
2018-11-11T08:08:42.044Z,68.00
2018-11-11T08:09:42.027Z,80.00
2018-11-11T08:10:42.006Z,92.00
2018-11-11T08:11:41.980Z,104.00
2018-11-11T08:12:41.956Z,120.00
2018-11-11T08:13:41.941Z,136.00
2018-11-11T08:14:41.919Z,152.00
2018-11-11T08:15:41.901Z,172.00
2018-11-11T08:16:41.952Z,196.00
2018-11-11T08:17:41.855Z,212.00
2018-11-11T08:18:41.837Z,232.00
2018-11-11T08:19:41.802Z,252.00
2018-11-11T08:20:41.797Z,276.00
2018-11-11T08:21:41.773Z,296.00
2018-11-11T08:22:41.733Z,320.00
2018-11-11T08:23:41.726Z,344.00
2018-11-11T08:24:41.708Z,364.00
2018-11-11T08:25:41.672Z,400.00
2018-11-11T08:26:41.719Z,444.00
2018-11-11T08:27:41.632Z,492.00
2018-11-11T08:28:41.612Z,548.00
2018-11-11T08:29:41.590Z,616.00
2018-11-11T08:30:41.584Z,680.00
2018-11-11T08:31:41.562Z,748.00
2018-11-11T08:32:41.524Z,832.00
2018-11-11T08:33:41.515Z,924.00
2018-11-11T08:34:41.499Z,1028.00
2018-11-11T08:35:41.476Z,1124.00
2018-11-11T08:36:41.457Z,1216.00
2018-11-11T08:37:41.423Z,1300.00
2018-11-11T08:38:41.413Z,1372.00
2018-11-11T08:39:41.394Z,1436.00
2018-11-11T08:40:41.447Z,1484.00
2018-11-11T08:41:41.352Z,1524.00
2018-11-11T08:42:41.340Z,1568.00
2018-11-11T08:43:41.310Z,1608.00
2018-11-11T08:44:41.290Z,1660.00
2018-11-11T08:45:41.277Z,1712.00
2018-11-11T08:46:41.253Z,1760.00
2018-11-11T08:47:41.227Z,1804.00
2018-11-11T08:48:41.205Z,1860.00
2018-11-11T08:49:41.186Z,1944.00
2018-11-11T08:50:41.167Z,2112.00
2018-11-11T08:51:41.125Z,2244.00
2018-11-11T08:52:41.109Z,2328.00
2018-11-11T08:53:41.087Z,2512.00
2018-11-11T08:54:41.080Z,2756.00
2018-11-11T08:55:41.059Z,2832.00
2018-11-11T08:56:41.041Z,2768.00
2018-11-11T08:57:41.027Z,2692.00
2018-11-11T08:58:40.997Z,2480.00
2018-11-11T08:59:40.960Z,2488.00
2018-11-11T09:00:40.952Z,2540.00
2018-11-11T09:01:40.927Z,2624.00
2018-11-11T09:02:40.918Z,2736.00
2018-11-11T09:03:40.894Z,2868.00
2018-11-11T09:04:40.921Z,2996.00
2018-11-11T09:05:40.855Z,3324.00
2018-11-11T09:06:40.835Z,3960.00
2018-11-11T09:07:40.811Z,4264.00
2018-11-11T09:08:40.801Z,4668.00
2018-11-11T09:09:40.771Z,4500.00
2018-11-11T09:10:40.750Z,3808.00
2018-11-11T09:11:40.762Z,3664.00
2018-11-11T09:12:40.711Z,3468.00
2018-11-11T09:13:40.688Z,3364.00
2018-11-11T09:14:40.668Z,3340.00
2018-11-11T09:15:40.639Z,3316.00
2018-11-11T09:16:40.629Z,3328.00
2018-11-11T09:17:40.596Z,3388.00
2018-11-11T09:18:40.586Z,3488.00
2018-11-11T09:19:40.550Z,3572.00
2018-11-11T09:20:40.526Z,3636.00
2018-11-11T09:21:40.520Z,3624.00
2018-11-11T09:22:40.485Z,3616.00
2018-11-11T09:23:40.538Z,3632.00
2018-11-11T09:24:40.459Z,3796.00
2018-11-11T09:25:40.441Z,3760.00
2018-11-11T09:26:40.419Z,3876.00
2018-11-11T09:27:40.400Z,3996.00
2018-11-11T09:28:40.364Z,4432.00
2018-11-11T09:29:40.480Z,4480.00
2018-11-11T09:30:40.338Z,4312.00
2018-11-11T09:31:40.322Z,4532.00
2018-11-11T09:32:40.303Z,4756.00
2018-11-11T09:33:40.280Z,4772.00
2018-11-11T09:34:40.261Z,5260.00
2018-11-11T09:35:40.240Z,5724.00
2018-11-11T09:36:40.215Z,5624.00
2018-11-11T09:37:40.185Z,6716.00
2018-11-11T09:38:40.174Z,5512.00
2018-11-11T09:39:40.155Z,5696.00
2018-11-11T09:40:40.123Z,5840.00
2018-11-11T09:41:40.121Z,6564.00
2018-11-11T09:42:40.157Z,12640.00
2018-11-11T09:43:40.076Z,15296.00
2018-11-11T09:44:40.060Z,17312.00
2018-11-11T09:45:40.045Z,17440.00
2018-11-11T09:46:40.007Z,9404.00
2018-11-11T09:47:40.062Z,16096.00
2018-11-11T09:48:39.985Z,18240.00
2018-11-11T09:49:39.958Z,20000.00
2018-11-11T09:50:39.943Z,20608.00
2018-11-11T09:51:39.921Z,16512.00
2018-11-11T09:52:39.963Z,14476.00
2018-11-11T09:53:39.882Z,20480.00
2018-11-11T09:54:39.871Z,20224.00
2018-11-11T09:55:39.845Z,22400.00
2018-11-11T09:56:39.920Z,22816.00
2018-11-11T09:57:39.817Z,22592.00
2018-11-11T09:58:39.913Z,22336.00
2018-11-11T09:59:39.900Z,23136.00
2018-11-11T10:00:39.760Z,24096.00
2018-11-11T10:01:39.745Z,24768.00
2018-11-11T10:02:39.715Z,14760.00
2018-11-11T10:03:39.718Z,13040.00
2018-11-11T10:04:39.703Z,13116.00
2018-11-11T10:05:39.684Z,18144.00
2018-11-11T10:06:39.793Z,14328.00
2018-11-11T10:07:39.660Z,17088.00
2018-11-11T10:08:39.639Z,17888.00
2018-11-11T10:09:39.620Z,27072.00
2018-11-11T10:10:39.614Z,16992.00
2018-11-11T10:11:39.593Z,13836.00
2018-11-11T10:12:39.613Z,14524.00
2018-11-11T10:13:39.567Z,11436.00
2018-11-11T10:14:39.549Z,13668.00
2018-11-11T10:15:39.536Z,13484.00
2018-11-11T10:16:39.516Z,10008.00
2018-11-11T10:17:39.511Z,9712.00
2018-11-11T10:18:39.495Z,9780.00
2018-11-11T10:19:39.482Z,9968.00
2018-11-11T10:20:39.473Z,18048.00
2018-11-11T10:21:39.431Z,12376.00
2018-11-11T10:22:39.430Z,20320.00
2018-11-11T10:23:39.418Z,12936.00
2018-11-11T10:24:39.383Z,12488.00
2018-11-11T10:25:39.379Z,12160.00
2018-11-11T10:26:39.358Z,11884.00
2018-11-11T10:27:39.354Z,11724.00
2018-11-11T10:28:39.338Z,11740.00
2018-11-11T10:29:39.360Z,11680.00
2018-11-11T10:30:39.307Z,11684.00
2018-11-11T10:31:39.292Z,12120.00
2018-11-11T10:32:39.267Z,13320.00
2018-11-11T10:33:39.375Z,15904.00
2018-11-11T10:34:39.248Z,13476.00
2018-11-11T10:35:39.235Z,13284.00
2018-11-11T10:36:39.218Z,14688.00
2018-11-11T10:37:39.203Z,18048.00
2018-11-11T10:38:39.188Z,12348.00
2018-11-11T10:39:39.176Z,13152.00
2018-11-11T10:40:39.156Z,16416.00
2018-11-11T10:41:39.138Z,12324.00
2018-11-11T10:42:39.126Z,13248.00
2018-11-11T10:43:39.107Z,12764.00
2018-11-11T10:44:39.102Z,13900.00
2018-11-11T10:45:39.082Z,12128.00
2018-11-11T10:46:39.061Z,18528.00
2018-11-11T10:47:39.056Z,12256.00
2018-11-11T10:48:39.119Z,15776.00
2018-11-11T10:49:39.020Z,14232.00
2018-11-11T10:50:39.008Z,12044.00
2018-11-11T10:51:38.995Z,11656.00
2018-11-11T10:52:38.975Z,17248.00
2018-11-11T10:53:38.974Z,18080.00
2018-11-11T10:54:38.954Z,19840.00
2018-11-11T10:55:38.937Z,20512.00
2018-11-11T10:56:38.923Z,22336.00
2018-11-11T10:57:38.910Z,20256.00
2018-11-11T10:58:38.889Z,22048.00
2018-11-11T10:59:38.875Z,20128.00
2018-11-11T11:00:38.868Z,19264.00
2018-11-11T11:01:38.834Z,23680.00
2018-11-11T11:02:38.838Z,20128.00
2018-11-11T11:03:38.831Z,21088.00
2018-11-11T11:04:38.809Z,22816.00
2018-11-11T11:05:38.789Z,22144.00
2018-11-11T11:06:38.787Z,18592.00
2018-11-11T11:07:38.769Z,16192.00
2018-11-11T11:08:38.748Z,21248.00
2018-11-11T11:09:38.785Z,23584.00
2018-11-11T11:10:38.724Z,24736.00
2018-11-11T11:11:38.717Z,21280.00
2018-11-11T11:12:38.714Z,19648.00
2018-11-11T11:13:38.709Z,20704.00
2018-11-11T11:14:38.692Z,21568.00
2018-11-11T11:15:38.673Z,20384.00
2018-11-11T11:16:38.662Z,22720.00
2018-11-11T11:17:38.652Z,22912.00
2018-11-11T11:18:38.638Z,22976.00
2018-11-11T11:19:38.627Z,22816.00
2018-11-11T11:20:38.616Z,23552.00
2018-11-11T11:21:38.605Z,24096.00
2018-11-11T11:22:38.610Z,20928.00
2018-11-11T11:23:38.586Z,20544.00
2018-11-11T11:24:38.572Z,21696.00
2018-11-11T11:25:38.567Z,20800.00
2018-11-11T11:26:38.530Z,25536.00
2018-11-11T11:27:38.531Z,23872.00
2018-11-11T11:28:38.530Z,23808.00
2018-11-11T11:29:38.510Z,23040.00
2018-11-11T11:30:38.487Z,24064.00
2018-11-11T11:31:38.614Z,24544.00
2018-11-11T11:32:38.474Z,25664.00
2018-11-11T11:33:38.460Z,25280.00
2018-11-11T11:34:38.452Z,25952.00
2018-11-11T11:35:38.515Z,25696.00
2018-11-11T11:36:38.428Z,25184.00
2018-11-11T11:37:38.413Z,22784.00
2018-11-11T11:38:38.411Z,23872.00
2018-11-11T11:39:38.393Z,17984.00
2018-11-11T11:40:38.376Z,22976.00
2018-11-11T11:41:38.370Z,11316.00
2018-11-11T11:42:38.359Z,11428.00
2018-11-11T11:43:38.338Z,12284.00
2018-11-11T11:44:38.331Z,12224.00
2018-11-11T11:45:38.323Z,16448.00
2018-11-11T11:46:38.292Z,28416.00
2018-11-11T11:47:38.278Z,30688.00
2018-11-11T11:48:38.275Z,31648.00
2018-11-11T11:49:38.263Z,14436.00
2018-11-11T11:50:38.244Z,35200.00
2018-11-11T11:51:38.232Z,40128.00
2018-11-11T11:52:38.208Z,15364.00
2018-11-11T11:53:38.190Z,15288.00
2018-11-11T11:54:38.190Z,35488.00
2018-11-11T11:55:38.175Z,23520.00
2018-11-11T11:56:38.149Z,43904.00
2018-11-11T11:57:38.150Z,43808.00
2018-11-11T11:58:38.136Z,16672.00
2018-11-11T11:59:38.125Z,30080.00
2018-11-11T12:00:38.107Z,26496.00
2018-11-11T12:01:38.099Z,37248.00
2018-11-11T12:02:38.077Z,26688.00
2018-11-11T12:03:38.053Z,35424.00
2018-11-11T12:04:38.050Z,27904.00
2018-11-11T12:05:38.034Z,21856.00
2018-11-11T12:06:38.005Z,15468.00
2018-11-11T12:07:38.004Z,15540.00
2018-11-11T12:08:38.045Z,13676.00
2018-11-11T12:09:37.978Z,14876.00
2018-11-11T12:10:37.971Z,19904.00
2018-11-11T12:12:11.142Z,41760.00
2018-11-11T12:12:37.915Z,38688.00
2018-11-11T12:13:37.921Z,25312.00
2018-11-11T12:14:37.908Z,8208.00
2018-11-11T12:15:37.877Z,6704.00
2018-11-11T12:16:37.912Z,17024.00
2018-11-11T12:17:37.859Z,13836.00
2018-11-11T12:18:37.854Z,20032.00
2018-11-11T12:19:37.846Z,25312.00
2018-11-11T12:20:37.811Z,19744.00
2018-11-11T12:21:37.809Z,11044.00
2018-11-11T12:22:37.792Z,7248.00
2018-11-11T12:23:37.782Z,11056.00
2018-11-11T12:24:37.764Z,21632.00
2018-11-11T12:25:37.821Z,7992.00
2018-11-11T12:26:37.735Z,6848.00
2018-11-11T12:27:37.723Z,9224.00
2018-11-11T12:28:37.709Z,7716.00
2018-11-11T12:29:37.697Z,6448.00
2018-11-11T12:30:37.736Z,7396.00
2018-11-11T12:31:37.658Z,3388.00
2018-11-11T12:32:37.653Z,3460.00
2018-11-11T12:33:37.677Z,3000.00
2018-11-11T12:34:37.623Z,2760.00
2018-11-11T12:35:37.615Z,2660.00
2018-11-11T12:36:37.591Z,2924.00
2018-11-11T12:37:37.584Z,7100.00
2018-11-11T12:38:37.563Z,9160.00
2018-11-11T12:39:37.575Z,8132.00
2018-11-11T12:40:37.534Z,8236.00
2018-11-11T12:41:37.521Z,5396.00
2018-11-11T12:42:37.507Z,10504.00
2018-11-11T12:43:37.484Z,15328.00
2018-11-11T12:44:37.515Z,14932.00
2018-11-11T12:45:37.458Z,19808.00